sensor_id;sensor_type;location;lat;lon;timestamp;pressure;altitude;pressure_sealevel;temperature;humidity
60646;BME280;46462;32.608;-117.032;2023-03-16T00:00:48;99328.46;;;25.77;44.62
60646;BME280;46462;32.608;-117.032;2023-03-16T00:03:19;99322.96;;;26.01;43.96
60646;BME280;46462;32.608;-117.032;2023-03-16T00:05:51;99322.85;;;25.98;44.01
60646;BME280;46462;32.608;-117.032;2023-03-16T00:08:20;99330.34;;;25.94;44.04
60646;BME280;46462;32.608;-117.032;2023-03-16T00:10:51;99338.68;;;25.88;44.14
60646;BME280;46462;32.608;-117.032;2023-03-16T00:13:23;99343.48;;;25.90;44.10
60646;BME280;46462;32.608;-117.032;2023-03-16T00:15:53;99340.49;;;25.70;44.52
60646;BME280;46462;32.608;-117.032;2023-03-16T00:18:24;99350.23;;;25.74;44.44
60646;BME280;46462;32.608;-117.032;2023-03-16T00:20:54;99348.32;;;25.68;44.54
60646;BME280;46462;32.608;-117.032;2023-03-16T00:23:25;99340.72;;;25.65;44.61
60646;BME280;46462;32.608;-117.032;2023-03-16T00:25:56;99350.58;;;25.53;44.85
60646;BME280;46462;32.608;-117.032;2023-03-16T00:28:26;99366.36;;;25.37;45.20
60646;BME280;46462;32.608;-117.032;2023-03-16T00:30:56;99356.01;;;25.52;44.85
60646;BME280;46462;32.608;-117.032;2023-03-16T00:33:27;99353.27;;;25.55;44.68
60646;BME280;46462;32.608;-117.032;2023-03-16T00:35:57;99352.53;;;25.45;44.89
60646;BME280;46462;32.608;-117.032;2023-03-16T00:38:30;99355.64;;;25.52;44.70
60646;BME280;46462;32.608;-117.032;2023-03-16T00:40:59;99343.20;;;25.54;44.59
60646;BME280;46462;32.608;-117.032;2023-03-16T00:43:30;99336.05;;;25.52;44.54
60646;BME280;46462;32.608;-117.032;2023-03-16T00:46:01;99346.93;;;25.54;44.52
60646;BME280;46462;32.608;-117.032;2023-03-16T00:48:31;99349.62;;;25.47;44.62
60646;BME280;46462;32.608;-117.032;2023-03-16T00:51:02;99353.94;;;25.57;44.39
60646;BME280;46462;32.608;-117.032;2023-03-16T00:53:33;99354.04;;;25.58;44.32
60646;BME280;46462;32.608;-117.032;2023-03-16T00:56:04;99369.80;;;25.51;44.43
60646;BME280;46462;32.608;-117.032;2023-03-16T00:58:35;99366.88;;;25.37;44.66
60646;BME280;46462;32.608;-117.032;2023-03-16T01:01:06;99368.07;;;25.36;44.65
60646;BME280;46462;32.608;-117.032;2023-03-16T01:03:39;99373.17;;;25.48;44.34
60646;BME280;46462;32.608;-117.032;2023-03-16T01:06:07;99373.72;;;25.49;44.26
60646;BME280;46462;32.608;-117.032;2023-03-16T01:08:36;99374.01;;;25.33;44.58
60646;BME280;46462;32.608;-117.032;2023-03-16T01:11:09;99378.69;;;25.38;44.47
60646;BME280;46462;32.608;-117.032;2023-03-16T01:13:38;99377.12;;;25.32;44.52
60646;BME280;46462;32.608;-117.032;2023-03-16T01:16:09;99381.57;;;25.20;44.75
60646;BME280;46462;32.608;-117.032;2023-03-16T01:18:39;99376.74;;;25.28;44.59
60646;BME280;46462;32.608;-117.032;2023-03-16T01:21:10;99362.36;;;25.30;44.48
60646;BME280;46462;32.608;-117.032;2023-03-16T01:23:41;99362.23;;;25.33;44.37
60646;BME280;46462;32.608;-117.032;2023-03-16T01:26:11;99369.33;;;25.16;44.75
60646;BME280;46462;32.608;-117.032;2023-03-16T01:28:42;99364.52;;;25.24;44.57
60646;BME280;46462;32.608;-117.032;2023-03-16T01:31:13;99362.05;;;25.22;44.51
60646;BME280;46462;32.608;-117.032;2023-03-16T01:33:43;99358.88;;;25.20;44.48
60646;BME280;46462;32.608;-117.032;2023-03-16T01:36:16;99366.04;;;25.12;44.66
60646;BME280;46462;32.608;-117.032;2023-03-16T01:38:45;99369.95;;;25.13;44.59
60646;BME280;46462;32.608;-117.032;2023-03-16T01:41:15;99371.13;;;25.03;44.78
60646;BME280;46462;32.608;-117.032;2023-03-16T01:43:46;99373.27;;;25.03;44.74
60646;BME280;46462;32.608;-117.032;2023-03-16T01:46:20;99371.76;;;25.16;44.42
60646;BME280;46462;32.608;-117.032;2023-03-16T01:48:54;99370.07;;;25.30;44.02
60646;BME280;46462;32.608;-117.032;2023-03-16T01:51:22;99370.48;;;25.40;43.75
60646;BME280;46462;32.608;-117.032;2023-03-16T01:53:52;99373.30;;;25.32;43.80
60646;BME280;46462;32.608;-117.032;2023-03-16T01:56:23;99365.76;;;25.33;43.78
60646;BME280;46462;32.608;-117.032;2023-03-16T01:58:51;99368.18;;;25.30;43.76
60646;BME280;46462;32.608;-117.032;2023-03-16T02:01:21;99375.58;;;25.27;43.83
60646;BME280;46462;32.608;-117.032;2023-03-16T02:03:56;99377.42;;;25.03;44.33
60646;BME280;46462;32.608;-117.032;2023-03-16T02:06:22;99371.12;;;24.92;44.60
60646;BME280;46462;32.608;-117.032;2023-03-16T02:08:53;99388.38;;;25.02;44.34
60646;BME280;46462;32.608;-117.032;2023-03-16T02:11:24;99387.27;;;24.96;44.42
60646;BME280;46462;32.608;-117.032;2023-03-16T02:13:59;99393.98;;;24.83;44.65
60646;BME280;46462;32.608;-117.032;2023-03-16T02:16:25;99387.29;;;24.87;44.60
60646;BME280;46462;32.608;-117.032;2023-03-16T02:18:56;99384.61;;;24.80;44.68
60646;BME280;46462;32.608;-117.032;2023-03-16T02:21:32;99388.13;;;24.89;44.51
60646;BME280;46462;32.608;-117.032;2023-03-16T02:23:57;99388.37;;;24.78;44.69
60646;BME280;46462;32.608;-117.032;2023-03-16T02:26:36;99389.06;;;24.74;44.73
60646;BME280;46462;32.608;-117.032;2023-03-16T02:29:09;99381.50;;;24.77;44.58
60646;BME280;46462;32.608;-117.032;2023-03-16T02:31:30;99380.17;;;24.87;44.39
60646;BME280;46462;32.608;-117.032;2023-03-16T02:34:00;99376.00;;;24.84;44.37
60646;BME280;46462;32.608;-117.032;2023-03-16T02:36:32;99371.95;;;24.80;44.38
60646;BME280;46462;32.608;-117.032;2023-03-16T02:39:01;99371.46;;;24.71;44.59
60646;BME280;46462;32.608;-117.032;2023-03-16T02:41:32;99370.25;;;24.70;44.54
60646;BME280;46462;32.608;-117.032;2023-03-16T02:44:06;99371.18;;;24.67;44.61
60646;BME280;46462;32.608;-117.032;2023-03-16T02:46:33;99374.70;;;24.71;44.41
60646;BME280;46462;32.608;-117.032;2023-03-16T02:49:09;99376.88;;;24.61;44.66
60646;BME280;46462;32.608;-117.032;2023-03-16T02:51:35;99382.47;;;24.66;44.49
60646;BME280;46462;32.608;-117.032;2023-03-16T02:54:05;99390.55;;;24.67;44.46
60646;BME280;46462;32.608;-117.032;2023-03-16T02:56:36;99398.83;;;24.75;44.28
60646;BME280;46462;32.608;-117.032;2023-03-16T02:59:07;99405.85;;;24.86;44.10
60646;BME280;46462;32.608;-117.032;2023-03-16T03:01:38;99403.53;;;24.92;43.88
60646;BME280;46462;32.608;-117.032;2023-03-16T03:04:08;99395.28;;;24.74;44.22
60646;BME280;46462;32.608;-117.032;2023-03-16T03:06:39;99398.22;;;24.81;43.98
60646;BME280;46462;32.608;-117.032;2023-03-16T03:09:10;99419.73;;;24.89;43.81
60646;BME280;46462;32.608;-117.032;2023-03-16T03:11:40;99431.87;;;25.04;43.42
60646;BME280;46462;32.608;-117.032;2023-03-16T03:14:11;99426.42;;;25.06;43.28
60646;BME280;46462;32.608;-117.032;2023-03-16T03:16:42;99430.59;;;25.05;43.26
60646;BME280;46462;32.608;-117.032;2023-03-16T03:19:13;99429.04;;;25.02;43.26
60646;BME280;46462;32.608;-117.032;2023-03-16T03:21:43;99423.71;;;24.99;43.32
60646;BME280;46462;32.608;-117.032;2023-03-16T03:24:14;99425.95;;;24.90;43.44
60646;BME280;46462;32.608;-117.032;2023-03-16T03:26:44;99433.24;;;24.82;43.53
60646;BME280;46462;32.608;-117.032;2023-03-16T03:29:15;99440.26;;;24.69;43.77
60646;BME280;46462;32.608;-117.032;2023-03-16T03:31:46;99443.62;;;24.67;43.80
60646;BME280;46462;32.608;-117.032;2023-03-16T03:34:17;99448.32;;;24.68;43.73
60646;BME280;46462;32.608;-117.032;2023-03-16T03:36:47;99452.08;;;24.63;43.81
60646;BME280;46462;32.608;-117.032;2023-03-16T03:39:18;99457.04;;;24.57;43.89
60646;BME280;46462;32.608;-117.032;2023-03-16T03:41:48;99464.61;;;24.66;43.58
60646;BME280;46462;32.608;-117.032;2023-03-16T03:44:19;99461.55;;;24.60;43.67
60646;BME280;46462;32.608;-117.032;2023-03-16T03:46:51;99461.13;;;24.63;43.57
60646;BME280;46462;32.608;-117.032;2023-03-16T03:49:21;99458.83;;;24.57;43.64
60646;BME280;46462;32.608;-117.032;2023-03-16T03:51:51;99451.87;;;24.66;43.40
60646;BME280;46462;32.608;-117.032;2023-03-16T03:54:22;99445.04;;;24.39;43.96
60646;BME280;46462;32.608;-117.032;2023-03-16T03:56:53;99450.43;;;24.37;43.97
60646;BME280;46462;32.608;-117.032;2023-03-16T03:59:23;99459.24;;;24.32;44.03
60646;BME280;46462;32.608;-117.032;2023-03-16T04:01:54;99455.94;;;24.27;44.10
60646;BME280;46462;32.608;-117.032;2023-03-16T04:04:25;99472.29;;;24.41;43.71
60646;BME280;46462;32.608;-117.032;2023-03-16T04:06:56;99475.73;;;24.34;43.81
60646;BME280;46462;32.608;-117.032;2023-03-16T04:09:27;99468.70;;;24.31;43.81
60646;BME280;46462;32.608;-117.032;2023-03-16T04:11:57;99465.57;;;24.35;43.60
60646;BME280;46462;32.608;-117.032;2023-03-16T04:14:28;99472.22;;;24.27;43.78
60646;BME280;46462;32.608;-117.032;2023-03-16T04:16:59;99470.91;;;24.28;43.71
60646;BME280;46462;32.608;-117.032;2023-03-16T04:19:29;99470.91;;;24.17;43.87
60646;BME280;46462;32.608;-117.032;2023-03-16T04:22:00;99469.60;;;24.16;43.87
60646;BME280;46462;32.608;-117.032;2023-03-16T04:24:31;99472.33;;;24.19;43.73
60646;BME280;46462;32.608;-117.032;2023-03-16T04:27:01;99467.60;;;24.12;43.88
60646;BME280;46462;32.608;-117.032;2023-03-16T04:29:32;99476.34;;;24.17;43.70
60646;BME280;46462;32.608;-117.032;2023-03-16T04:32:03;99484.55;;;24.20;43.60
60646;BME280;46462;32.608;-117.032;2023-03-16T04:34:34;99482.26;;;24.11;43.71
60646;BME280;46462;32.608;-117.032;2023-03-16T04:37:04;99482.75;;;24.03;43.82
60646;BME280;46462;32.608;-117.032;2023-03-16T04:39:35;99485.36;;;23.92;44.04
60646;BME280;46462;32.608;-117.032;2023-03-16T04:42:06;99485.04;;;23.93;43.99
60646;BME280;46462;32.608;-117.032;2023-03-16T04:44:36;99488.76;;;23.88;44.09
60646;BME280;46462;32.608;-117.032;2023-03-16T04:47:07;99494.58;;;23.72;44.39
60646;BME280;46462;32.608;-117.032;2023-03-16T04:49:38;99493.92;;;23.81;44.14
60646;BME280;46462;32.608;-117.032;2023-03-16T04:52:09;99494.64;;;23.81;44.04
60646;BME280;46462;32.608;-117.032;2023-03-16T04:54:39;99494.01;;;23.78;44.06
60646;BME280;46462;32.608;-117.032;2023-03-16T04:57:10;99493.13;;;23.66;44.32
60646;BME280;46462;32.608;-117.032;2023-03-16T04:59:41;99498.79;;;23.94;43.62
60646;BME280;46462;32.608;-117.032;2023-03-16T05:02:12;99499.05;;;23.96;43.52
60646;BME280;46462;32.608;-117.032;2023-03-16T05:04:42;99509.96;;;23.96;43.42
60646;BME280;46462;32.608;-117.032;2023-03-16T05:07:13;99506.79;;;23.88;43.56
60646;BME280;46462;32.608;-117.032;2023-03-16T05:09:44;99503.49;;;24.03;43.19
60646;BME280;46462;32.608;-117.032;2023-03-16T05:12:14;99496.73;;;23.98;43.25
60646;BME280;46462;32.608;-117.032;2023-03-16T05:14:45;99500.65;;;23.89;43.42
60646;BME280;46462;32.608;-117.032;2023-03-16T05:17:16;99508.54;;;24.03;43.10
60646;BME280;46462;32.608;-117.032;2023-03-16T05:19:46;99503.11;;;23.84;43.37
60646;BME280;46462;32.608;-117.032;2023-03-16T05:22:17;99506.14;;;23.80;43.46
60646;BME280;46462;32.608;-117.032;2023-03-16T05:24:48;99520.39;;;23.74;43.56
60646;BME280;46462;32.608;-117.032;2023-03-16T05:27:19;99526.38;;;23.82;43.33
60646;BME280;46462;32.608;-117.032;2023-03-16T05:29:49;99516.47;;;23.68;43.60
60646;BME280;46462;32.608;-117.032;2023-03-16T05:32:20;99511.29;;;23.65;43.67
60646;BME280;46462;32.608;-117.032;2023-03-16T05:34:51;99521.02;;;23.66;43.61
60646;BME280;46462;32.608;-117.032;2023-03-16T05:37:22;99525.42;;;23.66;43.51
60646;BME280;46462;32.608;-117.032;2023-03-16T05:39:52;99527.23;;;23.46;43.91
60646;BME280;46462;32.608;-117.032;2023-03-16T05:42:24;99525.58;;;23.59;43.64
60646;BME280;46462;32.608;-117.032;2023-03-16T05:44:54;99523.77;;;23.60;43.56
60646;BME280;46462;32.608;-117.032;2023-03-16T05:47:25;99525.86;;;23.43;43.89
60646;BME280;46462;32.608;-117.032;2023-03-16T05:49:55;99526.00;;;23.44;43.81
60646;BME280;46462;32.608;-117.032;2023-03-16T05:52:26;99525.81;;;23.54;43.56
60646;BME280;46462;32.608;-117.032;2023-03-16T05:54:57;99533.82;;;23.44;43.71
60646;BME280;46462;32.608;-117.032;2023-03-16T05:57:28;99535.08;;;23.62;43.32
60646;BME280;46462;32.608;-117.032;2023-03-16T05:59:58;99535.64;;;23.61;43.25
60646;BME280;46462;32.608;-117.032;2023-03-16T06:02:29;99542.37;;;23.26;43.97
60646;BME280;46462;32.608;-117.032;2023-03-16T06:05:00;99540.05;;;23.27;43.99
60646;BME280;46462;32.608;-117.032;2023-03-16T06:07:30;99533.21;;;23.32;43.77
60646;BME280;46462;32.608;-117.032;2023-03-16T06:10:01;99529.44;;;23.38;43.61
60646;BME280;46462;32.608;-117.032;2023-03-16T06:12:32;99535.01;;;23.23;43.92
60646;BME280;46462;32.608;-117.032;2023-03-16T06:15:08;99536.68;;;23.24;43.80
60646;BME280;46462;32.608;-117.032;2023-03-16T06:17:38;99535.89;;;23.36;43.59
60646;BME280;46462;32.608;-117.032;2023-03-16T06:20:12;99538.90;;;23.34;43.57
60646;BME280;46462;32.608;-117.032;2023-03-16T06:22:42;99548.63;;;23.17;43.83
60646;BME280;46462;32.608;-117.032;2023-03-16T06:25:13;99555.35;;;23.13;43.92
60646;BME280;46462;32.608;-117.032;2023-03-16T06:27:43;99545.75;;;23.18;43.78
60646;BME280;46462;32.608;-117.032;2023-03-16T06:30:14;99546.27;;;23.10;43.95
60646;BME280;46462;32.608;-117.032;2023-03-16T06:32:45;99538.39;;;23.15;43.80
60646;BME280;46462;32.608;-117.032;2023-03-16T06:35:15;99537.85;;;23.16;43.73
60646;BME280;46462;32.608;-117.032;2023-03-16T06:37:46;99539.55;;;23.33;43.33
60646;BME280;46462;32.608;-117.032;2023-03-16T06:40:17;99539.46;;;23.21;43.54
60646;BME280;46462;32.608;-117.032;2023-03-16T06:42:48;99539.51;;;23.20;43.54
60646;BME280;46462;32.608;-117.032;2023-03-16T06:45:18;99530.31;;;23.24;43.37
60646;BME280;46462;32.608;-117.032;2023-03-16T06:47:49;99528.83;;;23.18;43.42
60646;BME280;46462;32.608;-117.032;2023-03-16T06:50:20;99522.13;;;23.17;43.47
60646;BME280;46462;32.608;-117.032;2023-03-16T06:52:50;99521.95;;;23.22;43.33
60646;BME280;46462;32.608;-117.032;2023-03-16T06:55:21;99523.17;;;23.07;43.61
60646;BME280;46462;32.608;-117.032;2023-03-16T06:57:52;99527.17;;;23.12;43.45
60646;BME280;46462;32.608;-117.032;2023-03-16T07:00:23;99530.22;;;23.15;43.40
60646;BME280;46462;32.608;-117.032;2023-03-16T07:02:54;99525.14;;;23.05;43.59
60646;BME280;46462;32.608;-117.032;2023-03-16T07:05:24;99519.89;;;22.92;43.83
60646;BME280;46462;32.608;-117.032;2023-03-16T07:07:55;99522.51;;;22.94;43.75
60646;BME280;46462;32.608;-117.032;2023-03-16T07:10:26;99526.49;;;22.79;44.04
60646;BME280;46462;32.608;-117.032;2023-03-16T07:12:56;99530.55;;;22.93;43.72
60646;BME280;46462;32.608;-117.032;2023-03-16T07:15:27;99533.41;;;23.03;43.46
60646;BME280;46462;32.608;-117.032;2023-03-16T07:17:58;99536.32;;;22.95;43.57
60646;BME280;46462;32.608;-117.032;2023-03-16T07:20:29;99536.53;;;22.91;43.65
60646;BME280;46462;32.608;-117.032;2023-03-16T07:22:59;99537.35;;;22.87;43.65
60646;BME280;46462;32.608;-117.032;2023-03-16T07:25:30;99545.18;;;22.92;43.56
60646;BME280;46462;32.608;-117.032;2023-03-16T07:28:01;99549.38;;;22.74;43.91
60646;BME280;46462;32.608;-117.032;2023-03-16T07:30:32;99555.72;;;22.86;43.66
60646;BME280;46462;32.608;-117.032;2023-03-16T07:33:03;99557.14;;;22.74;43.78
60646;BME280;46462;32.608;-117.032;2023-03-16T07:35:33;99551.09;;;22.82;43.62
60646;BME280;46462;32.608;-117.032;2023-03-16T07:38:04;99552.15;;;22.83;43.54
60646;BME280;46462;32.608;-117.032;2023-03-16T07:40:35;99545.54;;;22.64;43.89
60646;BME280;46462;32.608;-117.032;2023-03-16T07:43:05;99536.36;;;22.67;43.82
60646;BME280;46462;32.608;-117.032;2023-03-16T07:45:36;99531.06;;;22.61;43.95
60646;BME280;46462;32.608;-117.032;2023-03-16T07:48:07;99519.95;;;22.70;43.72
60646;BME280;46462;32.608;-117.032;2023-03-16T07:50:38;99513.09;;;22.80;43.46
60646;BME280;46462;32.608;-117.032;2023-03-16T07:53:08;99510.16;;;22.61;43.82
60646;BME280;46462;32.608;-117.032;2023-03-16T07:55:39;99508.94;;;22.51;43.97
60646;BME280;46462;32.608;-117.032;2023-03-16T07:58:11;99504.58;;;22.56;43.89
60646;BME280;46462;32.608;-117.032;2023-03-16T08:00:41;99501.62;;;22.51;43.98
60646;BME280;46462;32.608;-117.032;2023-03-16T08:03:11;99506.30;;;22.57;43.83
60646;BME280;46462;32.608;-117.032;2023-03-16T08:05:42;99510.90;;;22.51;43.91
60646;BME280;46462;32.608;-117.032;2023-03-16T08:08:13;99516.89;;;22.60;43.71
60646;BME280;46462;32.608;-117.032;2023-03-16T08:10:47;99520.07;;;22.50;43.88
60646;BME280;46462;32.608;-117.032;2023-03-16T08:13:15;99526.85;;;22.50;43.88
60646;BME280;46462;32.608;-117.032;2023-03-16T08:15:47;99523.62;;;22.44;43.94
60646;BME280;46462;32.608;-117.032;2023-03-16T08:18:16;99516.40;;;22.54;43.69
60646;BME280;46462;32.608;-117.032;2023-03-16T08:20:46;99518.44;;;22.48;43.76
60646;BME280;46462;32.608;-117.032;2023-03-16T08:23:17;99527.11;;;22.44;43.86
60646;BME280;46462;32.608;-117.032;2023-03-16T08:25:51;99532.07;;;22.38;43.95
60646;BME280;46462;32.608;-117.032;2023-03-16T08:28:19;99536.99;;;22.49;43.73
60646;BME280;46462;32.608;-117.032;2023-03-16T08:30:52;99540.04;;;22.41;43.87
60646;BME280;46462;32.608;-117.032;2023-03-16T08:33:20;99540.13;;;22.40;43.86
60646;BME280;46462;32.608;-117.032;2023-03-16T08:35:51;99538.99;;;22.28;44.09
60646;BME280;46462;32.608;-117.032;2023-03-16T08:38:22;99536.91;;;22.24;44.16
60646;BME280;46462;32.608;-117.032;2023-03-16T08:40:52;99538.24;;;22.36;43.86
60646;BME280;46462;32.608;-117.032;2023-03-16T08:43:23;99539.18;;;22.22;44.08
60646;BME280;46462;32.608;-117.032;2023-03-16T08:45:54;99543.67;;;22.32;43.90
60646;BME280;46462;32.608;-117.032;2023-03-16T08:48:25;99542.27;;;22.29;43.90
60646;BME280;46462;32.608;-117.032;2023-03-16T08:50:56;99545.35;;;22.37;43.69
60646;BME280;46462;32.608;-117.032;2023-03-16T08:53:26;99551.49;;;22.35;43.65
60646;BME280;46462;32.608;-117.032;2023-03-16T08:56:02;99559.57;;;22.36;43.65
60646;BME280;46462;32.608;-117.032;2023-03-16T08:58:28;99554.78;;;22.26;43.79
60646;BME280;46462;32.608;-117.032;2023-03-16T09:00:59;99551.64;;;22.17;44.01
60646;BME280;46462;32.608;-117.032;2023-03-16T09:03:30;99548.86;;;22.26;43.75
60646;BME280;46462;32.608;-117.032;2023-03-16T09:06:02;99550.31;;;22.19;43.87
60646;BME280;46462;32.608;-117.032;2023-03-16T09:08:31;99554.50;;;22.22;43.78
60646;BME280;46462;32.608;-117.032;2023-03-16T09:11:03;99552.38;;;22.19;43.80
60646;BME280;46462;32.608;-117.032;2023-03-16T09:13:33;99549.16;;;22.29;43.60
60646;BME280;46462;32.608;-117.032;2023-03-16T09:16:04;99546.16;;;22.25;43.66
60646;BME280;46462;32.608;-117.032;2023-03-16T09:18:34;99546.54;;;22.28;43.54
60646;BME280;46462;32.608;-117.032;2023-03-16T09:21:07;99553.12;;;22.42;43.21
60646;BME280;46462;32.608;-117.032;2023-03-16T09:23:36;99555.11;;;22.27;43.46
60646;BME280;46462;32.608;-117.032;2023-03-16T09:26:07;99550.63;;;22.20;43.61
60646;BME280;46462;32.608;-117.032;2023-03-16T09:28:38;99545.51;;;22.18;43.64
60646;BME280;46462;32.608;-117.032;2023-03-16T09:31:11;99545.49;;;22.22;43.54
60646;BME280;46462;32.608;-117.032;2023-03-16T09:33:39;99540.55;;;22.13;43.71
60646;BME280;46462;32.608;-117.032;2023-03-16T09:36:10;99536.17;;;22.11;43.73
60646;BME280;46462;32.608;-117.032;2023-03-16T09:38:41;99531.75;;;22.06;43.75
60646;BME280;46462;32.608;-117.032;2023-03-16T09:41:22;99527.45;;;22.00;43.91
60646;BME280;46462;32.608;-117.032;2023-03-16T09:43:52;99529.38;;;21.98;43.92
60646;BME280;46462;32.608;-117.032;2023-03-16T09:46:16;99530.90;;;22.03;43.79
60646;BME280;46462;32.608;-117.032;2023-03-16T09:48:43;99535.04;;;22.11;43.60
60646;BME280;46462;32.608;-117.032;2023-03-16T09:51:19;99536.18;;;22.04;43.69
60646;BME280;46462;32.608;-117.032;2023-03-16T09:53:46;99541.99;;;22.08;43.58
60646;BME280;46462;32.608;-117.032;2023-03-16T09:56:24;99548.10;;;22.01;43.69
60646;BME280;46462;32.608;-117.032;2023-03-16T09:58:47;99546.50;;;21.96;43.78
60646;BME280;46462;32.608;-117.032;2023-03-16T10:01:25;99539.24;;;22.04;43.62
60646;BME280;46462;32.608;-117.032;2023-03-16T10:04:02;99536.11;;;22.09;43.44
60646;BME280;46462;32.608;-117.032;2023-03-16T10:06:19;99535.96;;;22.08;43.44
60646;BME280;46462;32.608;-117.032;2023-03-16T10:08:53;99531.72;;;21.99;43.58
60646;BME280;46462;32.608;-117.032;2023-03-16T10:11:25;99530.45;;;21.92;43.71
60646;BME280;46462;32.608;-117.032;2023-03-16T10:13:54;99530.67;;;21.92;43.70
60646;BME280;46462;32.608;-117.032;2023-03-16T10:16:26;99521.75;;;21.86;43.81
60646;BME280;46462;32.608;-117.032;2023-03-16T10:18:59;99521.21;;;21.85;43.80
60646;BME280;46462;32.608;-117.032;2023-03-16T10:21:24;99522.27;;;21.84;43.80
60646;BME280;46462;32.608;-117.032;2023-03-16T10:23:55;99526.47;;;21.77;43.95
60646;BME280;46462;32.608;-117.032;2023-03-16T10:26:30;99513.73;;;21.72;44.03
60646;BME280;46462;32.608;-117.032;2023-03-16T10:28:56;99506.67;;;21.70;44.02
60646;BME280;46462;32.608;-117.032;2023-03-16T10:31:27;99511.77;;;21.79;43.83
60646;BME280;46462;32.608;-117.032;2023-03-16T10:34:03;99519.93;;;21.74;43.87
60646;BME280;46462;32.608;-117.032;2023-03-16T10:36:31;99522.83;;;21.82;43.73
60646;BME280;46462;32.608;-117.032;2023-03-16T10:39:01;99527.88;;;21.87;43.58
60646;BME280;46462;32.608;-117.032;2023-03-16T10:41:36;99510.30;;;21.87;43.52
60646;BME280;46462;32.608;-117.032;2023-03-16T10:44:02;99490.54;;;21.83;43.56
60646;BME280;46462;32.608;-117.032;2023-03-16T10:46:37;99479.43;;;21.85;43.50
60646;BME280;46462;32.608;-117.032;2023-03-16T10:49:02;99483.74;;;21.86;43.43
60646;BME280;46462;32.608;-117.032;2023-03-16T10:51:34;99475.73;;;21.96;43.27
60646;BME280;46462;32.608;-117.032;2023-03-16T10:54:08;99469.84;;;21.94;43.24
60646;BME280;46462;32.608;-117.032;2023-03-16T10:56:34;99467.02;;;21.97;43.13
60646;BME280;46462;32.608;-117.032;2023-03-16T10:59:13;99470.05;;;21.85;43.36
60646;BME280;46462;32.608;-117.032;2023-03-16T11:01:36;99460.00;;;21.88;43.27
60646;BME280;46462;32.608;-117.032;2023-03-16T11:04:13;99450.85;;;21.98;43.07
60646;BME280;46462;32.608;-117.032;2023-03-16T11:09:17;99437.05;;;21.97;43.04
60646;BME280;46462;32.608;-117.032;2023-03-16T11:11:39;99434.28;;;21.95;43.05
60646;BME280;46462;32.608;-117.032;2023-03-16T11:14:12;99435.86;;;21.79;43.32
60646;BME280;46462;32.608;-117.032;2023-03-16T11:16:44;99437.20;;;21.83;43.28
60646;BME280;46462;32.608;-117.032;2023-03-16T11:19:17;99440.23;;;21.86;43.14
60646;BME280;46462;32.608;-117.032;2023-03-16T11:21:48;99444.62;;;21.76;43.35
60646;BME280;46462;32.608;-117.032;2023-03-16T11:24:17;99435.93;;;21.72;43.41
60646;BME280;46462;32.608;-117.032;2023-03-16T11:26:45;99431.64;;;21.73;43.37
60646;BME280;46462;32.608;-117.032;2023-03-16T11:29:19;99430.22;;;21.75;43.33
60646;BME280;46462;32.608;-117.032;2023-03-16T11:31:49;99432.39;;;21.71;43.35
60646;BME280;46462;32.608;-117.032;2023-03-16T11:34:18;99435.64;;;21.69;43.40
60646;BME280;46462;32.608;-117.032;2023-03-16T11:36:51;99436.79;;;21.78;43.18
60646;BME280;46462;32.608;-117.032;2023-03-16T11:39:29;99442.54;;;21.68;43.36
60646;BME280;46462;32.608;-117.032;2023-03-16T11:41:55;99446.19;;;21.69;43.33
60646;BME280;46462;32.608;-117.032;2023-03-16T11:44:27;99447.57;;;21.67;43.30
60646;BME280;46462;32.608;-117.032;2023-03-16T11:46:55;99441.59;;;21.63;43.43
60646;BME280;46462;32.608;-117.032;2023-03-16T11:51:57;99440.93;;;21.66;43.31
60646;BME280;46462;32.608;-117.032;2023-03-16T11:54:36;99447.28;;;21.62;43.35
60646;BME280;46462;32.608;-117.032;2023-03-16T11:56:58;99448.91;;;21.58;43.39
60646;BME280;46462;32.608;-117.032;2023-03-16T11:59:35;99456.03;;;21.62;43.33
60646;BME280;46462;32.608;-117.032;2023-03-16T12:02:05;99459.83;;;21.70;43.13
60646;BME280;46462;32.608;-117.032;2023-03-16T12:07:07;99461.94;;;21.58;43.35
60646;BME280;46462;32.608;-117.032;2023-03-16T12:12:02;99478.21;;;21.45;43.56
60646;BME280;46462;32.608;-117.032;2023-03-16T12:14:33;99488.89;;;21.48;43.48
60646;BME280;46462;32.608;-117.032;2023-03-16T12:17:03;99499.03;;;21.52;43.43
60646;BME280;46462;32.608;-117.032;2023-03-16T12:19:38;99490.22;;;21.47;43.46
60646;BME280;46462;32.608;-117.032;2023-03-16T12:22:07;99487.94;;;21.42;43.54
60646;BME280;46462;32.608;-117.032;2023-03-16T12:24:38;99487.72;;;21.41;43.56
60646;BME280;46462;32.608;-117.032;2023-03-16T12:27:03;99498.40;;;21.42;43.54
60646;BME280;46462;32.608;-117.032;2023-03-16T12:29:37;99510.46;;;21.41;43.54
60646;BME280;46462;32.608;-117.032;2023-03-16T12:32:11;99519.87;;;21.42;43.50
60646;BME280;46462;32.608;-117.032;2023-03-16T12:34:41;99514.05;;;21.39;43.54
60646;BME280;46462;32.608;-117.032;2023-03-16T12:37:18;99510.62;;;21.45;43.41
60646;BME280;46462;32.608;-117.032;2023-03-16T12:44:44;99496.65;;;21.39;43.45
60646;BME280;46462;32.608;-117.032;2023-03-16T12:47:16;99508.72;;;21.47;43.28
60646;BME280;46462;32.608;-117.032;2023-03-16T12:49:40;99511.48;;;21.42;43.34
60646;BME280;46462;32.608;-117.032;2023-03-16T12:52:12;99506.93;;;21.51;43.16
60646;BME280;46462;32.608;-117.032;2023-03-16T12:54:50;99499.26;;;21.46;43.21
60646;BME280;46462;32.608;-117.032;2023-03-16T12:57:16;99492.57;;;21.42;43.31
60646;BME280;46462;32.608;-117.032;2023-03-16T12:59:45;99486.18;;;21.39;43.29
60646;BME280;46462;32.608;-117.032;2023-03-16T13:02:17;99479.13;;;21.41;43.26